createdAt,value
2022-10-13T00:04:49.204Z,19.6
2022-10-13T00:14:58.446Z,19.5
2022-10-13T00:25:05.909Z,19.2
2022-10-13T00:35:14.587Z,19
2022-10-13T00:45:23.426Z,19.1
2022-10-13T00:55:30.956Z,19
2022-10-13T01:05:38.458Z,18.9
2022-10-13T01:15:46.986Z,18.9
2022-10-13T01:25:54.496Z,18.8
2022-10-13T01:36:03.001Z,18.7
2022-10-13T01:46:10.420Z,18.7
2022-10-13T01:56:11.187Z,18.5
2022-10-13T02:06:18.768Z,18.5
2022-10-13T02:16:28.616Z,18.2
2022-10-13T02:26:38.208Z,18.2
2022-10-13T02:36:45.429Z,18.5
2022-10-13T02:46:55.230Z,18.6
2022-10-13T02:56:56.322Z,18.8
2022-10-13T03:07:04.013Z,19.1
2022-10-13T03:17:04.808Z,19.1
2022-10-13T03:27:11.440Z,19
2022-10-13T03:37:18.983Z,18.8
2022-10-13T03:47:26.436Z,18.7
2022-10-13T03:57:36.481Z,18.9
2022-10-13T04:07:35.218Z,18.9
2022-10-13T04:17:43.121Z,19
2022-10-13T04:27:50.951Z,19
2022-10-13T04:37:52.118Z,18.8
2022-10-13T04:47:59.725Z,18.7
2022-10-13T04:58:07.238Z,18.7
2022-10-13T05:08:17.202Z,18.7
2022-10-13T05:18:24.936Z,18.6
2022-10-13T05:28:35.066Z,18.6
2022-10-13T05:38:35.086Z,18.6
2022-10-13T05:48:43.084Z,18.6
2022-10-13T05:58:51.865Z,18.5
2022-10-13T06:08:55.681Z,18.6
2022-10-13T06:18:58.110Z,18.8
2022-10-13T06:29:05.797Z,18.9
2022-10-13T06:39:07.227Z,19.1
2022-10-13T06:49:14.948Z,18.9
2022-10-13T06:59:23.744Z,19
2022-10-13T07:09:32.468Z,19
2022-10-13T07:19:41.055Z,19.3
2022-10-13T07:29:48.390Z,19.6
2022-10-13T07:39:57.089Z,19.7
2022-10-13T07:50:04.649Z,19.8
2022-10-13T08:00:12.294Z,20.6
2022-10-13T08:10:19.973Z,22.3
2022-10-13T08:20:32.109Z,23.5
2022-10-13T08:30:35.711Z,24.2
2022-10-13T08:40:43.125Z,24.8
2022-10-13T08:50:45.548Z,25.7
2022-10-13T09:00:54.151Z,25.8
2022-10-13T09:11:05.899Z,26
2022-10-13T09:21:38.174Z,25.2
2022-10-13T09:31:16.252Z,25.4
2022-10-13T09:41:23.874Z,24.7
2022-10-13T09:51:31.630Z,24.6
2022-10-13T10:01:40.447Z,25.2
2022-10-13T10:11:48.155Z,25.8
2022-10-13T10:21:49.715Z,26.1
2022-10-13T10:31:57.216Z,26.5
2022-10-13T10:42:07.343Z,26.8
2022-10-13T10:52:06.797Z,26.9
2022-10-13T11:02:11.837Z,27
2022-10-13T11:12:12.819Z,28
2022-10-13T11:22:13.928Z,27.8
2022-10-13T11:32:20.687Z,27.9
2022-10-13T11:42:29.526Z,27.9
2022-10-13T11:52:37.078Z,27.8
2022-10-13T12:02:44.861Z,27.5
2022-10-13T12:23:08.224Z,27.2
2022-10-13T12:33:02.316Z,27.4
2022-10-13T12:43:03.565Z,26.9
2022-10-13T12:53:12.664Z,26.5
2022-10-13T13:03:12.893Z,26.4
2022-10-13T13:13:13.114Z,26.5
2022-10-13T13:23:21.050Z,26
2022-10-13T13:33:28.662Z,26.5
2022-10-13T14:23:46.602Z,26.4
2022-10-13T14:33:54.482Z,26.8
2022-10-13T14:54:04.163Z,26.8
2022-10-13T15:04:12.800Z,26.5
2022-10-13T15:14:20.294Z,26.4
2022-10-13T15:34:30.165Z,25.9
2022-10-13T15:45:04.902Z,25.8
2022-10-13T16:14:49.582Z,25.6
2022-10-13T16:24:57.384Z,25.3
2022-10-13T16:35:06.045Z,25.1
2022-10-13T16:45:14.052Z,24.5
2022-10-13T16:55:22.410Z,24.2
2022-10-13T17:05:29.889Z,24.2
2022-10-13T17:15:37.360Z,23.9
2022-10-13T17:25:45.761Z,24
2022-10-13T17:35:54.188Z,24
2022-10-13T17:46:17.871Z,24.5
2022-10-13T17:56:08.741Z,24.4
2022-10-13T18:06:11.361Z,24.3
2022-10-13T18:16:16.143Z,24.3
2022-10-13T18:26:17.898Z,24.1
2022-10-13T18:36:33.082Z,23.9
2022-10-13T18:46:29.302Z,23.9
2022-10-13T18:56:36.977Z,23.8
2022-10-13T19:06:40.310Z,23.9
2022-10-13T19:16:40.974Z,23.8
2022-10-13T19:26:48.724Z,23.8
2022-10-13T19:36:57.593Z,23.4
2022-10-13T19:46:57.706Z,23.4
2022-10-13T19:57:07.558Z,23.4
2022-10-13T20:07:14.595Z,23.2
2022-10-13T20:17:23.540Z,23.2
2022-10-13T20:27:30.929Z,22.9
2022-10-13T20:37:39.729Z,22.8
2022-10-13T20:47:48.456Z,23
2022-10-13T20:57:49.777Z,22.8
2022-10-13T21:07:57.216Z,22.7
2022-10-13T21:18:04.597Z,22.7
2022-10-13T21:28:11.994Z,22.7
2022-10-13T21:38:19.548Z,22.7
2022-10-13T21:48:27.427Z,22.5
2022-10-13T21:58:34.847Z,22.5
2022-10-13T22:08:42.811Z,22.3
2022-10-13T22:18:50.291Z,22.2
2022-10-13T22:28:58.720Z,21.8
2022-10-13T22:39:06.050Z,21.6
2022-10-13T22:49:14.697Z,21.5
2022-10-13T22:59:24.865Z,21.3
2022-10-13T23:09:23.393Z,21.1
2022-10-13T23:19:31.020Z,21
2022-10-13T23:29:38.449Z,21
2022-10-13T23:39:45.902Z,20.7
2022-10-13T23:49:53.428Z,20.7
